sensor_id;sensor_type;location;lat;lon;timestamp;temperature;humidity
17208;DHT22;8720;48.488;9.202;2023-06-22T00:01:18;24.50;56.80
17208;DHT22;8720;48.488;9.202;2023-06-22T00:03:46;24.50;56.90
17208;DHT22;8720;48.488;9.202;2023-06-22T00:06:14;24.40;57.00
17208;DHT22;8720;48.488;9.202;2023-06-22T00:08:41;24.30;57.00
17208;DHT22;8720;48.488;9.202;2023-06-22T00:11:11;24.30;57.80
17208;DHT22;8720;48.488;9.202;2023-06-22T00:13:39;24.30;57.40
17208;DHT22;8720;48.488;9.202;2023-06-22T00:16:06;24.20;57.40
17208;DHT22;8720;48.488;9.202;2023-06-22T00:18:33;24.20;57.50
17208;DHT22;8720;48.488;9.202;2023-06-22T00:21:01;24.10;57.60
17208;DHT22;8720;48.488;9.202;2023-06-22T00:23:28;24.10;57.60
17208;DHT22;8720;48.488;9.202;2023-06-22T00:25:59;24.00;57.70
17208;DHT22;8720;48.488;9.202;2023-06-22T00:28:28;24.00;57.80
17208;DHT22;8720;48.488;9.202;2023-06-22T00:30:56;23.90;58.00
17208;DHT22;8720;48.488;9.202;2023-06-22T00:33:25;23.90;58.00
17208;DHT22;8720;48.488;9.202;2023-06-22T00:35:53;23.90;58.20
17208;DHT22;8720;48.488;9.202;2023-06-22T00:38:21;23.80;58.20
17208;DHT22;8720;48.488;9.202;2023-06-22T00:40:48;23.80;58.40
17208;DHT22;8720;48.488;9.202;2023-06-22T00:43:15;23.70;58.60
17208;DHT22;8720;48.488;9.202;2023-06-22T00:45:44;23.70;58.70
17208;DHT22;8720;48.488;9.202;2023-06-22T00:48:12;23.60;58.80
17208;DHT22;8720;48.488;9.202;2023-06-22T00:50:41;23.60;59.00
17208;DHT22;8720;48.488;9.202;2023-06-22T00:53:09;23.50;59.10
17208;DHT22;8720;48.488;9.202;2023-06-22T00:55:41;23.50;59.30
17208;DHT22;8720;48.488;9.202;2023-06-22T00:58:10;23.40;59.40
17208;DHT22;8720;48.488;9.202;2023-06-22T01:00:39;23.40;59.60
17208;DHT22;8720;48.488;9.202;2023-06-22T01:03:08;23.30;59.60
17208;DHT22;8720;48.488;9.202;2023-06-22T01:05:37;23.30;59.80
17208;DHT22;8720;48.488;9.202;2023-06-22T01:08:12;23.20;60.00
17208;DHT22;8720;48.488;9.202;2023-06-22T01:10:50;23.20;60.20
17208;DHT22;8720;48.488;9.202;2023-06-22T01:13:28;23.10;60.10
17208;DHT22;8720;48.488;9.202;2023-06-22T01:16:03;23.10;60.80
17208;DHT22;8720;48.488;9.202;2023-06-22T01:18:36;23.10;60.30
17208;DHT22;8720;48.488;9.202;2023-06-22T01:21:08;23.00;60.30
17208;DHT22;8720;48.488;9.202;2023-06-22T01:23:51;23.00;60.70
17208;DHT22;8720;48.488;9.202;2023-06-22T01:26:36;23.00;61.20
17208;DHT22;8720;48.488;9.202;2023-06-22T01:29:08;22.90;61.00
17208;DHT22;8720;48.488;9.202;2023-06-22T01:31:39;22.90;61.20
17208;DHT22;8720;48.488;9.202;2023-06-22T01:34:09;22.90;61.20
17208;DHT22;8720;48.488;9.202;2023-06-22T01:36:39;22.80;61.20
17208;DHT22;8720;48.488;9.202;2023-06-22T01:39:07;22.80;62.10
17208;DHT22;8720;48.488;9.202;2023-06-22T01:41:37;22.70;61.50
17208;DHT22;8720;48.488;9.202;2023-06-22T01:44:07;22.70;62.00
17208;DHT22;8720;48.488;9.202;2023-06-22T01:46:36;22.60;62.00
17208;DHT22;8720;48.488;9.202;2023-06-22T01:49:06;22.60;62.00
17208;DHT22;8720;48.488;9.202;2023-06-22T01:51:36;22.60;62.10
17208;DHT22;8720;48.488;9.202;2023-06-22T01:54:03;22.50;62.10
17208;DHT22;8720;48.488;9.202;2023-06-22T01:56:34;22.50;62.30
17208;DHT22;8720;48.488;9.202;2023-06-22T01:59:07;22.40;62.50
17208;DHT22;8720;48.488;9.202;2023-06-22T02:01:44;22.40;63.00
17208;DHT22;8720;48.488;9.202;2023-06-22T02:04:21;22.30;63.00
17208;DHT22;8720;48.488;9.202;2023-06-22T02:06:54;22.30;63.00
17208;DHT22;8720;48.488;9.202;2023-06-22T02:09:28;22.30;63.10
17208;DHT22;8720;48.488;9.202;2023-06-22T02:12:00;22.20;63.10
17208;DHT22;8720;48.488;9.202;2023-06-22T02:14:33;22.20;63.10
17208;DHT22;8720;48.488;9.202;2023-06-22T02:17:01;22.20;63.30
17208;DHT22;8720;48.488;9.202;2023-06-22T02:19:36;22.10;63.20
17208;DHT22;8720;48.488;9.202;2023-06-22T02:22:04;22.10;63.50
17208;DHT22;8720;48.488;9.202;2023-06-22T02:24:31;22.10;63.40
17208;DHT22;8720;48.488;9.202;2023-06-22T02:29:26;22.10;63.70
17208;DHT22;8720;48.488;9.202;2023-06-22T02:31:55;22.00;63.80
17208;DHT22;8720;48.488;9.202;2023-06-22T02:34:22;22.00;64.20
17208;DHT22;8720;48.488;9.202;2023-06-22T02:36:51;22.00;64.00
17208;DHT22;8720;48.488;9.202;2023-06-22T02:39:23;22.00;64.00
17208;DHT22;8720;48.488;9.202;2023-06-22T02:41:52;21.90;64.40
17208;DHT22;8720;48.488;9.202;2023-06-22T02:44:22;21.90;64.40
17208;DHT22;8720;48.488;9.202;2023-06-22T02:46:49;21.90;64.40
17208;DHT22;8720;48.488;9.202;2023-06-22T02:49:19;21.90;64.60
17208;DHT22;8720;48.488;9.202;2023-06-22T02:51:48;21.80;65.00
17208;DHT22;8720;48.488;9.202;2023-06-22T02:54:18;21.80;65.10
17208;DHT22;8720;48.488;9.202;2023-06-22T02:56:48;21.80;65.10
17208;DHT22;8720;48.488;9.202;2023-06-22T02:59:17;21.70;65.20
17208;DHT22;8720;48.488;9.202;2023-06-22T03:01:51;21.70;65.30
17208;DHT22;8720;48.488;9.202;2023-06-22T03:04:24;21.70;65.40
17208;DHT22;8720;48.488;9.202;2023-06-22T03:06:52;21.60;65.50
17208;DHT22;8720;48.488;9.202;2023-06-22T03:09:19;21.60;65.50
17208;DHT22;8720;48.488;9.202;2023-06-22T03:11:47;21.60;65.70
17208;DHT22;8720;48.488;9.202;2023-06-22T03:14:15;21.50;65.70
17208;DHT22;8720;48.488;9.202;2023-06-22T03:16:42;21.50;65.80
17208;DHT22;8720;48.488;9.202;2023-06-22T03:19:09;21.50;65.90
17208;DHT22;8720;48.488;9.202;2023-06-22T03:21:38;21.50;66.00
17208;DHT22;8720;48.488;9.202;2023-06-22T03:24:07;21.40;66.00
17208;DHT22;8720;48.488;9.202;2023-06-22T03:26:34;21.40;66.00
17208;DHT22;8720;48.488;9.202;2023-06-22T03:29:02;21.40;66.10
17208;DHT22;8720;48.488;9.202;2023-06-22T03:31:30;21.40;66.10
17208;DHT22;8720;48.488;9.202;2023-06-22T03:33:57;21.40;66.90
17208;DHT22;8720;48.488;9.202;2023-06-22T03:36:25;21.30;66.10
17208;DHT22;8720;48.488;9.202;2023-06-22T03:38:53;21.40;66.30
17208;DHT22;8720;48.488;9.202;2023-06-22T03:41:21;21.40;66.50
17208;DHT22;8720;48.488;9.202;2023-06-22T03:43:48;21.40;66.40
17208;DHT22;8720;48.488;9.202;2023-06-22T03:46:16;21.40;66.30
17208;DHT22;8720;48.488;9.202;2023-06-22T03:48:43;21.40;66.30
17208;DHT22;8720;48.488;9.202;2023-06-22T03:51:10;21.40;66.40
17208;DHT22;8720;48.488;9.202;2023-06-22T03:53:38;21.40;66.50
17208;DHT22;8720;48.488;9.202;2023-06-22T03:56:06;21.40;66.50
17208;DHT22;8720;48.488;9.202;2023-06-22T03:58:34;21.40;66.60
17208;DHT22;8720;48.488;9.202;2023-06-22T04:01:02;21.50;66.50
17208;DHT22;8720;48.488;9.202;2023-06-22T04:03:29;21.40;66.20
17208;DHT22;8720;48.488;9.202;2023-06-22T04:05:57;21.50;66.30
17208;DHT22;8720;48.488;9.202;2023-06-22T04:08:24;21.50;66.50
17208;DHT22;8720;48.488;9.202;2023-06-22T04:10:51;21.50;66.50
17208;DHT22;8720;48.488;9.202;2023-06-22T04:13:20;21.60;66.70
17208;DHT22;8720;48.488;9.202;2023-06-22T04:15:48;21.60;66.80
17208;DHT22;8720;48.488;9.202;2023-06-22T04:18:15;21.70;66.80
17208;DHT22;8720;48.488;9.202;2023-06-22T04:20:42;21.70;66.80
17208;DHT22;8720;48.488;9.202;2023-06-22T04:23:10;21.80;66.90
17208;DHT22;8720;48.488;9.202;2023-06-22T04:25:37;21.90;66.80
17208;DHT22;8720;48.488;9.202;2023-06-22T04:28:05;22.00;66.60
17208;DHT22;8720;48.488;9.202;2023-06-22T04:30:39;22.00;66.40
17208;DHT22;8720;48.488;9.202;2023-06-22T04:33:12;22.10;66.30
17208;DHT22;8720;48.488;9.202;2023-06-22T04:35:39;22.20;66.20
17208;DHT22;8720;48.488;9.202;2023-06-22T04:38:08;22.30;66.20
17208;DHT22;8720;48.488;9.202;2023-06-22T04:40:36;22.40;66.20
17208;DHT22;8720;48.488;9.202;2023-06-22T04:43:03;22.60;66.80
17208;DHT22;8720;48.488;9.202;2023-06-22T04:45:32;22.80;66.40
17208;DHT22;8720;48.488;9.202;2023-06-22T04:48:02;23.10;66.70
17208;DHT22;8720;48.488;9.202;2023-06-22T04:50:30;23.40;66.30
17208;DHT22;8720;48.488;9.202;2023-06-22T04:52:57;23.80;66.10
17208;DHT22;8720;48.488;9.202;2023-06-22T04:55:25;24.20;65.30
17208;DHT22;8720;48.488;9.202;2023-06-22T04:57:52;24.60;64.70
17208;DHT22;8720;48.488;9.202;2023-06-22T05:00:20;25.00;63.80
17208;DHT22;8720;48.488;9.202;2023-06-22T05:02:49;25.40;62.80
17208;DHT22;8720;48.488;9.202;2023-06-22T05:05:17;25.70;61.70
17208;DHT22;8720;48.488;9.202;2023-06-22T05:07:46;26.10;60.70
17208;DHT22;8720;48.488;9.202;2023-06-22T05:10:16;26.40;59.80
17208;DHT22;8720;48.488;9.202;2023-06-22T05:12:43;26.80;59.30
17208;DHT22;8720;48.488;9.202;2023-06-22T05:15:11;27.20;58.50
17208;DHT22;8720;48.488;9.202;2023-06-22T05:17:38;27.50;57.90
17208;DHT22;8720;48.488;9.202;2023-06-22T05:20:09;27.90;57.30
17208;DHT22;8720;48.488;9.202;2023-06-22T05:22:41;28.30;56.30
17208;DHT22;8720;48.488;9.202;2023-06-22T05:25:10;28.60;54.70
17208;DHT22;8720;48.488;9.202;2023-06-22T05:27:38;29.00;54.80
17208;DHT22;8720;48.488;9.202;2023-06-22T05:30:06;29.30;54.30
17208;DHT22;8720;48.488;9.202;2023-06-22T05:32:35;29.60;53.20
17208;DHT22;8720;48.488;9.202;2023-06-22T05:35:03;29.90;52.70
17208;DHT22;8720;48.488;9.202;2023-06-22T05:37:31;30.20;52.10
17208;DHT22;8720;48.488;9.202;2023-06-22T05:40:00;30.40;51.40
17208;DHT22;8720;48.488;9.202;2023-06-22T05:42:28;30.60;50.30
17208;DHT22;8720;48.488;9.202;2023-06-22T05:44:55;30.80;49.90
17208;DHT22;8720;48.488;9.202;2023-06-22T05:47:24;31.00;50.30
17208;DHT22;8720;48.488;9.202;2023-06-22T05:49:51;31.10;49.20
17208;DHT22;8720;48.488;9.202;2023-06-22T05:52:18;31.30;48.80
17208;DHT22;8720;48.488;9.202;2023-06-22T05:54:46;31.40;48.50
17208;DHT22;8720;48.488;9.202;2023-06-22T05:57:14;31.60;48.40
17208;DHT22;8720;48.488;9.202;2023-06-22T05:59:42;31.80;47.90
17208;DHT22;8720;48.488;9.202;2023-06-22T06:02:09;32.00;47.50
17208;DHT22;8720;48.488;9.202;2023-06-22T06:04:36;32.20;47.00
17208;DHT22;8720;48.488;9.202;2023-06-22T06:07:03;32.50;47.40
17208;DHT22;8720;48.488;9.202;2023-06-22T06:09:31;32.70;46.60
17208;DHT22;8720;48.488;9.202;2023-06-22T06:11:58;33.00;46.40
17208;DHT22;8720;48.488;9.202;2023-06-22T06:14:26;33.30;45.90
17208;DHT22;8720;48.488;9.202;2023-06-22T06:16:54;33.60;45.00
17208;DHT22;8720;48.488;9.202;2023-06-22T06:19:21;33.80;44.70
17208;DHT22;8720;48.488;9.202;2023-06-22T06:21:48;34.00;44.00
17208;DHT22;8720;48.488;9.202;2023-06-22T06:24:16;34.20;43.40
17208;DHT22;8720;48.488;9.202;2023-06-22T06:26:43;34.40;43.90
17208;DHT22;8720;48.488;9.202;2023-06-22T06:29:10;34.60;42.80
17208;DHT22;8720;48.488;9.202;2023-06-22T06:31:39;34.90;42.40
17208;DHT22;8720;48.488;9.202;2023-06-22T06:34:06;35.10;41.70
17208;DHT22;8720;48.488;9.202;2023-06-22T06:36:33;35.20;41.80
17208;DHT22;8720;48.488;9.202;2023-06-22T06:39:01;35.40;41.40
17208;DHT22;8720;48.488;9.202;2023-06-22T06:41:29;35.60;40.80
17208;DHT22;8720;48.488;9.202;2023-06-22T06:43:56;35.70;40.10
17208;DHT22;8720;48.488;9.202;2023-06-22T06:46:23;35.80;39.90
17208;DHT22;8720;48.488;9.202;2023-06-22T06:48:52;35.80;39.60
17208;DHT22;8720;48.488;9.202;2023-06-22T06:51:19;35.90;39.00
17208;DHT22;8720;48.488;9.202;2023-06-22T06:53:46;36.00;39.00
17208;DHT22;8720;48.488;9.202;2023-06-22T06:56:14;36.00;38.70
17208;DHT22;8720;48.488;9.202;2023-06-22T06:58:41;36.00;38.80
17208;DHT22;8720;48.488;9.202;2023-06-22T07:01:10;36.10;38.70
17208;DHT22;8720;48.488;9.202;2023-06-22T07:03:38;36.10;38.30
17208;DHT22;8720;48.488;9.202;2023-06-22T07:06:07;36.10;38.10
17208;DHT22;8720;48.488;9.202;2023-06-22T07:08:35;36.10;37.70
17208;DHT22;8720;48.488;9.202;2023-06-22T07:11:03;36.10;37.90
17208;DHT22;8720;48.488;9.202;2023-06-22T07:13:30;36.10;37.70
17208;DHT22;8720;48.488;9.202;2023-06-22T07:15:57;36.10;37.70
17208;DHT22;8720;48.488;9.202;2023-06-22T07:18:24;36.10;37.30
17208;DHT22;8720;48.488;9.202;2023-06-22T07:20:52;36.10;37.20
17208;DHT22;8720;48.488;9.202;2023-06-22T07:23:21;36.10;37.30
17208;DHT22;8720;48.488;9.202;2023-06-22T07:25:48;36.10;37.10
17208;DHT22;8720;48.488;9.202;2023-06-22T07:28:15;36.20;37.00
17208;DHT22;8720;48.488;9.202;2023-06-22T07:30:43;36.20;36.90
17208;DHT22;8720;48.488;9.202;2023-06-22T07:33:10;36.20;37.10
17208;DHT22;8720;48.488;9.202;2023-06-22T07:35:37;36.20;36.70
17208;DHT22;8720;48.488;9.202;2023-06-22T07:38:04;36.20;36.40
17208;DHT22;8720;48.488;9.202;2023-06-22T07:40:33;36.20;36.50
17208;DHT22;8720;48.488;9.202;2023-06-22T07:43:01;36.20;37.10
17208;DHT22;8720;48.488;9.202;2023-06-22T07:45:29;36.20;36.30
17208;DHT22;8720;48.488;9.202;2023-06-22T07:47:59;36.10;36.20
17208;DHT22;8720;48.488;9.202;2023-06-22T07:50:26;36.10;36.30
17208;DHT22;8720;48.488;9.202;2023-06-22T07:52:53;36.10;36.60
17208;DHT22;8720;48.488;9.202;2023-06-22T07:55:20;36.10;36.40
17208;DHT22;8720;48.488;9.202;2023-06-22T07:57:49;36.10;36.40
17208;DHT22;8720;48.488;9.202;2023-06-22T08:00:17;36.10;36.40
17208;DHT22;8720;48.488;9.202;2023-06-22T08:02:46;36.00;36.40
17208;DHT22;8720;48.488;9.202;2023-06-22T08:05:14;36.10;36.70
17208;DHT22;8720;48.488;9.202;2023-06-22T08:07:43;36.10;36.40
17208;DHT22;8720;48.488;9.202;2023-06-22T08:10:11;36.00;36.40
17208;DHT22;8720;48.488;9.202;2023-06-22T08:12:39;35.90;36.30
17208;DHT22;8720;48.488;9.202;2023-06-22T08:15:08;35.90;36.90
17208;DHT22;8720;48.488;9.202;2023-06-22T08:17:36;35.70;36.60
17208;DHT22;8720;48.488;9.202;2023-06-22T08:20:04;35.60;36.30
17208;DHT22;8720;48.488;9.202;2023-06-22T08:22:35;35.50;36.80
17208;DHT22;8720;48.488;9.202;2023-06-22T08:25:03;35.40;37.30
17208;DHT22;8720;48.488;9.202;2023-06-22T08:27:32;35.30;37.30
17208;DHT22;8720;48.488;9.202;2023-06-22T08:29:59;35.30;37.20
17208;DHT22;8720;48.488;9.202;2023-06-22T08:32:28;35.30;37.20
17208;DHT22;8720;48.488;9.202;2023-06-22T08:34:58;35.30;36.90
17208;DHT22;8720;48.488;9.202;2023-06-22T08:37:25;35.40;37.20
17208;DHT22;8720;48.488;9.202;2023-06-22T08:39:56;35.30;37.30
17208;DHT22;8720;48.488;9.202;2023-06-22T08:42:24;35.40;37.50
17208;DHT22;8720;48.488;9.202;2023-06-22T08:44:51;35.40;37.20
17208;DHT22;8720;48.488;9.202;2023-06-22T08:47:19;35.30;37.20
17208;DHT22;8720;48.488;9.202;2023-06-22T08:49:48;35.30;37.30
17208;DHT22;8720;48.488;9.202;2023-06-22T08:52:16;35.20;37.50
17208;DHT22;8720;48.488;9.202;2023-06-22T08:54:44;35.20;37.50
17208;DHT22;8720;48.488;9.202;2023-06-22T08:57:11;35.20;37.90
17208;DHT22;8720;48.488;9.202;2023-06-22T08:59:38;35.20;37.90
17208;DHT22;8720;48.488;9.202;2023-06-22T09:02:06;35.20;37.70
17208;DHT22;8720;48.488;9.202;2023-06-22T09:04:33;35.30;37.80
17208;DHT22;8720;48.488;9.202;2023-06-22T09:07:02;35.30;37.80
17208;DHT22;8720;48.488;9.202;2023-06-22T09:09:30;35.40;38.20
17208;DHT22;8720;48.488;9.202;2023-06-22T09:11:57;35.40;37.70
17208;DHT22;8720;48.488;9.202;2023-06-22T09:14:25;35.40;38.10
17208;DHT22;8720;48.488;9.202;2023-06-22T09:16:52;35.40;38.10
17208;DHT22;8720;48.488;9.202;2023-06-22T09:19:20;35.30;37.80
17208;DHT22;8720;48.488;9.202;2023-06-22T09:21:47;35.30;38.10
17208;DHT22;8720;48.488;9.202;2023-06-22T09:24:16;35.30;37.90
17208;DHT22;8720;48.488;9.202;2023-06-22T09:26:43;35.20;38.10
17208;DHT22;8720;48.488;9.202;2023-06-22T09:29:11;35.20;38.20
17208;DHT22;8720;48.488;9.202;2023-06-22T09:31:38;35.10;38.10
17208;DHT22;8720;48.488;9.202;2023-06-22T09:34:05;35.00;38.60
17208;DHT22;8720;48.488;9.202;2023-06-22T09:36:33;35.00;38.80
17208;DHT22;8720;48.488;9.202;2023-06-22T09:39:01;34.90;38.60
17208;DHT22;8720;48.488;9.202;2023-06-22T09:41:33;34.90;38.50
17208;DHT22;8720;48.488;9.202;2023-06-22T09:44:00;34.80;38.50
17208;DHT22;8720;48.488;9.202;2023-06-22T09:46:28;34.80;38.60
17208;DHT22;8720;48.488;9.202;2023-06-22T09:48:55;34.70;38.70
17208;DHT22;8720;48.488;9.202;2023-06-22T09:51:23;34.70;38.80
17208;DHT22;8720;48.488;9.202;2023-06-22T09:53:50;34.70;38.90
17208;DHT22;8720;48.488;9.202;2023-06-22T09:56:17;34.70;38.80
17208;DHT22;8720;48.488;9.202;2023-06-22T09:58:46;34.70;38.70
17208;DHT22;8720;48.488;9.202;2023-06-22T10:01:16;34.70;38.70
17208;DHT22;8720;48.488;9.202;2023-06-22T10:03:43;34.60;38.50
17208;DHT22;8720;48.488;9.202;2023-06-22T10:06:10;34.60;38.60
17208;DHT22;8720;48.488;9.202;2023-06-22T10:08:38;34.60;38.40
17208;DHT22;8720;48.488;9.202;2023-06-22T10:11:06;34.50;38.50
17208;DHT22;8720;48.488;9.202;2023-06-22T10:13:33;34.40;38.80
17208;DHT22;8720;48.488;9.202;2023-06-22T10:16:02;34.40;38.70
17208;DHT22;8720;48.488;9.202;2023-06-22T10:18:29;34.30;39.00
17208;DHT22;8720;48.488;9.202;2023-06-22T10:20:57;34.30;39.30
17208;DHT22;8720;48.488;9.202;2023-06-22T10:23:24;34.30;39.10
17208;DHT22;8720;48.488;9.202;2023-06-22T10:25:52;34.30;39.60
17208;DHT22;8720;48.488;9.202;2023-06-22T10:28:19;34.20;38.60
17208;DHT22;8720;48.488;9.202;2023-06-22T10:30:46;34.20;38.80
17208;DHT22;8720;48.488;9.202;2023-06-22T10:33:15;34.20;38.80
17208;DHT22;8720;48.488;9.202;2023-06-22T10:35:42;34.20;38.90
17208;DHT22;8720;48.488;9.202;2023-06-22T10:38:09;34.20;38.70
17208;DHT22;8720;48.488;9.202;2023-06-22T10:40:37;34.20;38.70
17208;DHT22;8720;48.488;9.202;2023-06-22T10:43:05;34.10;38.70
17208;DHT22;8720;48.488;9.202;2023-06-22T10:45:32;34.10;38.80
17208;DHT22;8720;48.488;9.202;2023-06-22T10:47:59;34.10;38.80
17208;DHT22;8720;48.488;9.202;2023-06-22T10:50:28;34.20;39.10
17208;DHT22;8720;48.488;9.202;2023-06-22T10:52:56;34.20;38.80
17208;DHT22;8720;48.488;9.202;2023-06-22T10:55:23;34.20;38.70
17208;DHT22;8720;48.488;9.202;2023-06-22T10:57:50;34.20;39.10
17208;DHT22;8720;48.488;9.202;2023-06-22T11:00:18;34.20;39.50
17208;DHT22;8720;48.488;9.202;2023-06-22T11:02:46;34.30;39.20
17208;DHT22;8720;48.488;9.202;2023-06-22T11:05:14;34.40;39.30
17208;DHT22;8720;48.488;9.202;2023-06-22T11:07:43;34.50;39.70
17208;DHT22;8720;48.488;9.202;2023-06-22T11:10:10;34.60;38.60
17208;DHT22;8720;48.488;9.202;2023-06-22T11:12:38;34.60;38.60
17208;DHT22;8720;48.488;9.202;2023-06-22T11:15:07;34.70;38.30
17208;DHT22;8720;48.488;9.202;2023-06-22T11:17:35;34.70;38.10
17208;DHT22;8720;48.488;9.202;2023-06-22T11:20:03;34.80;38.50
17208;DHT22;8720;48.488;9.202;2023-06-22T11:22:36;34.80;38.60
17208;DHT22;8720;48.488;9.202;2023-06-22T11:25:07;34.90;38.30
17208;DHT22;8720;48.488;9.202;2023-06-22T11:27:36;34.90;38.20
17208;DHT22;8720;48.488;9.202;2023-06-22T11:30:05;35.00;38.40
17208;DHT22;8720;48.488;9.202;2023-06-22T11:32:33;35.10;37.80
17208;DHT22;8720;48.488;9.202;2023-06-22T11:35:00;35.20;37.90
17208;DHT22;8720;48.488;9.202;2023-06-22T11:37:28;35.20;37.70
17208;DHT22;8720;48.488;9.202;2023-06-22T11:39:55;35.30;37.90
17208;DHT22;8720;48.488;9.202;2023-06-22T11:42:24;35.30;37.80
17208;DHT22;8720;48.488;9.202;2023-06-22T11:44:51;35.40;38.00
17208;DHT22;8720;48.488;9.202;2023-06-22T11:47:18;35.40;37.80
17208;DHT22;8720;48.488;9.202;2023-06-22T11:49:45;35.40;37.60
17208;DHT22;8720;48.488;9.202;2023-06-22T11:52:13;35.40;37.60
17208;DHT22;8720;48.488;9.202;2023-06-22T11:54:40;35.40;37.30
17208;DHT22;8720;48.488;9.202;2023-06-22T11:57:07;35.40;37.80
17208;DHT22;8720;48.488;9.202;2023-06-22T11:59:36;35.40;38.00
17208;DHT22;8720;48.488;9.202;2023-06-22T12:02:04;35.50;38.10
17208;DHT22;8720;48.488;9.202;2023-06-22T12:04:33;35.50;38.10
17208;DHT22;8720;48.488;9.202;2023-06-22T12:07:00;35.50;38.10
17208;DHT22;8720;48.488;9.202;2023-06-22T12:09:28;35.60;38.10
17208;DHT22;8720;48.488;9.202;2023-06-22T12:11:55;35.60;38.20
17208;DHT22;8720;48.488;9.202;2023-06-22T12:14:22;35.60;38.90
17208;DHT22;8720;48.488;9.202;2023-06-22T12:16:51;35.70;38.40
17208;DHT22;8720;48.488;9.202;2023-06-22T12:19:18;35.60;38.40
17208;DHT22;8720;48.488;9.202;2023-06-22T12:21:45;35.60;38.40
17208;DHT22;8720;48.488;9.202;2023-06-22T12:24:12;35.60;38.60
17208;DHT22;8720;48.488;9.202;2023-06-22T12:26:40;35.50;38.70
17208;DHT22;8720;48.488;9.202;2023-06-22T12:29:07;35.50;38.50
17208;DHT22;8720;48.488;9.202;2023-06-22T12:31:36;35.40;38.50
17208;DHT22;8720;48.488;9.202;2023-06-22T12:34:08;35.30;38.60
17208;DHT22;8720;48.488;9.202;2023-06-22T12:36:36;35.20;38.70
17208;DHT22;8720;48.488;9.202;2023-06-22T12:39:03;35.00;38.80
17208;DHT22;8720;48.488;9.202;2023-06-22T12:41:31;35.00;39.00
17208;DHT22;8720;48.488;9.202;2023-06-22T12:43:58;34.80;38.80
17208;DHT22;8720;48.488;9.202;2023-06-22T12:46:26;34.60;39.00
17208;DHT22;8720;48.488;9.202;2023-06-22T12:48:53;34.60;39.20
17208;DHT22;8720;48.488;9.202;2023-06-22T12:51:22;34.50;39.40
17208;DHT22;8720;48.488;9.202;2023-06-22T12:53:50;34.40;39.60
17208;DHT22;8720;48.488;9.202;2023-06-22T12:56:17;34.30;39.50
17208;DHT22;8720;48.488;9.202;2023-06-22T12:58:44;34.20;39.90
17208;DHT22;8720;48.488;9.202;2023-06-22T13:01:12;34.20;40.30
17208;DHT22;8720;48.488;9.202;2023-06-22T13:03:39;34.10;40.20
17208;DHT22;8720;48.488;9.202;2023-06-22T13:06:07;34.10;40.00
17208;DHT22;8720;48.488;9.202;2023-06-22T13:08:35;34.10;40.80
17208;DHT22;8720;48.488;9.202;2023-06-22T13:11:03;34.10;40.30
17208;DHT22;8720;48.488;9.202;2023-06-22T13:13:30;34.10;40.40
17208;DHT22;8720;48.488;9.202;2023-06-22T13:15:59;34.20;40.50
17208;DHT22;8720;48.488;9.202;2023-06-22T13:18:27;34.20;40.50
17208;DHT22;8720;48.488;9.202;2023-06-22T13:20:54;34.20;40.40
17208;DHT22;8720;48.488;9.202;2023-06-22T13:23:21;34.40;40.20
17208;DHT22;8720;48.488;9.202;2023-06-22T13:25:50;34.40;40.40
17208;DHT22;8720;48.488;9.202;2023-06-22T13:28:18;34.50;40.10
17208;DHT22;8720;48.488;9.202;2023-06-22T13:30:47;34.50;40.10
17208;DHT22;8720;48.488;9.202;2023-06-22T13:33:14;34.60;40.10
17208;DHT22;8720;48.488;9.202;2023-06-22T13:35:41;34.60;40.10
17208;DHT22;8720;48.488;9.202;2023-06-22T13:38:09;34.60;39.70
17208;DHT22;8720;48.488;9.202;2023-06-22T13:40:37;34.60;39.50
17208;DHT22;8720;48.488;9.202;2023-06-22T13:43:06;34.60;39.70
17208;DHT22;8720;48.488;9.202;2023-06-22T13:45:34;34.60;39.10
17208;DHT22;8720;48.488;9.202;2023-06-22T13:48:01;34.60;40.30
17208;DHT22;8720;48.488;9.202;2023-06-22T13:50:28;34.50;39.50
17208;DHT22;8720;48.488;9.202;2023-06-22T13:52:56;34.50;39.80
17208;DHT22;8720;48.488;9.202;2023-06-22T13:55:23;34.50;39.60
17208;DHT22;8720;48.488;9.202;2023-06-22T13:57:52;34.40;39.90
17208;DHT22;8720;48.488;9.202;2023-06-22T14:00:21;34.40;39.20
17208;DHT22;8720;48.488;9.202;2023-06-22T14:02:48;34.40;39.00
17208;DHT22;8720;48.488;9.202;2023-06-22T14:05:16;34.40;39.10
17208;DHT22;8720;48.488;9.202;2023-06-22T14:07:43;34.40;39.40
17208;DHT22;8720;48.488;9.202;2023-06-22T14:10:11;34.30;39.20
17208;DHT22;8720;48.488;9.202;2023-06-22T14:12:38;34.30;39.00
17208;DHT22;8720;48.488;9.202;2023-06-22T14:15:06;34.30;39.00
17208;DHT22;8720;48.488;9.202;2023-06-22T14:17:35;34.30;39.30
17208;DHT22;8720;48.488;9.202;2023-06-22T14:20:03;34.20;39.10
17208;DHT22;8720;48.488;9.202;2023-06-22T14:22:31;34.20;39.70
17208;DHT22;8720;48.488;9.202;2023-06-22T14:25:01;34.20;39.50
17208;DHT22;8720;48.488;9.202;2023-06-22T14:27:28;34.20;39.50
17208;DHT22;8720;48.488;9.202;2023-06-22T14:29:55;34.20;39.60
17208;DHT22;8720;48.488;9.202;2023-06-22T14:32:23;34.20;39.90
17208;DHT22;8720;48.488;9.202;2023-06-22T14:34:52;34.30;40.00
17208;DHT22;8720;48.488;9.202;2023-06-22T14:37:19;34.30;39.60
17208;DHT22;8720;48.488;9.202;2023-06-22T14:39:46;34.30;39.80
17208;DHT22;8720;48.488;9.202;2023-06-22T14:42:13;34.30;39.70
17208;DHT22;8720;48.488;9.202;2023-06-22T14:44:41;34.30;40.00
17208;DHT22;8720;48.488;9.202;2023-06-22T14:47:08;34.40;40.10
17208;DHT22;8720;48.488;9.202;2023-06-22T14:49:36;34.40;40.10
17208;DHT22;8720;48.488;9.202;2023-06-22T14:52:05;34.40;39.80
17208;DHT22;8720;48.488;9.202;2023-06-22T14:54:33;34.40;39.90
17208;DHT22;8720;48.488;9.202;2023-06-22T14:57:00;34.40;40.00
17208;DHT22;8720;48.488;9.202;2023-06-22T14:59:27;34.50;40.00
17208;DHT22;8720;48.488;9.202;2023-06-22T15:01:55;34.50;40.20
17208;DHT22;8720;48.488;9.202;2023-06-22T15:04:22;34.50;39.80
17208;DHT22;8720;48.488;9.202;2023-06-22T15:06:49;34.50;39.90
17208;DHT22;8720;48.488;9.202;2023-06-22T15:09:18;34.50;38.90
17208;DHT22;8720;48.488;9.202;2023-06-22T15:11:45;34.50;38.80
17208;DHT22;8720;48.488;9.202;2023-06-22T15:14:13;34.50;39.30
17208;DHT22;8720;48.488;9.202;2023-06-22T15:16:41;34.40;39.00
17208;DHT22;8720;48.488;9.202;2023-06-22T15:19:08;34.40;39.30
17208;DHT22;8720;48.488;9.202;2023-06-22T15:21:38;34.40;39.30
17208;DHT22;8720;48.488;9.202;2023-06-22T15:24:05;34.40;38.90
17208;DHT22;8720;48.488;9.202;2023-06-22T15:26:34;34.40;39.00
17208;DHT22;8720;48.488;9.202;2023-06-22T15:29:02;34.30;38.80
17208;DHT22;8720;48.488;9.202;2023-06-22T15:31:29;34.30;38.80
17208;DHT22;8720;48.488;9.202;2023-06-22T15:33:56;34.30;38.40
17208;DHT22;8720;48.488;9.202;2023-06-22T15:36:23;34.20;36.50
17208;DHT22;8720;48.488;9.202;2023-06-22T15:38:51;34.20;35.70
17208;DHT22;8720;48.488;9.202;2023-06-22T15:41:18;34.20;35.20
17208;DHT22;8720;48.488;9.202;2023-06-22T15:43:46;34.10;34.00
17208;DHT22;8720;48.488;9.202;2023-06-22T15:46:14;34.00;33.80
17208;DHT22;8720;48.488;9.202;2023-06-22T15:48:43;33.90;33.20
17208;DHT22;8720;48.488;9.202;2023-06-22T15:51:10;33.90;34.00
17208;DHT22;8720;48.488;9.202;2023-06-22T15:53:37;33.80;33.30